Morania No 6 — WBQ7544 — position and weather

sailwx.info

Track history (hours):
 
Tides and Currents Weather Stations Pressure Air Temp Water Temp Dewpoint Dewpoint Depression Visibility Wind Speed Wind Dir Waves Ship Positions

Morania No 6

Owner: PENN MARITIME INC, Seattle, WA. More information available from US FCC via Universal Licensing System and Coast Guard Vessel Documentation Center.

Last reported at 2015-Feb-25 19:10 UTC. Time now 2015-Mar-02 20:42 UTC.
Position N 29°56' W 090°03'.

Length 45 m; draft 5.4 m.

MMSI: 366920970.

Date/timePositionNaut miles runAvg speedWind from/ knotsBaromVisibWave heightAir tempDewpointWater temp
2015-Feb-25 19:10N 29°56' W 090°03'0 0.0
2015-Feb-25 18:32N 29°56' W 090°03'0 0.0
2015-Feb-25 17:32N 29°56' W 090°03'0 0.0
2015-Feb-25 16:27N 29°56' W 090°03'0 0.0
2015-Feb-25 15:31N 29°56' W 090°03'0 0.0
2015-Feb-25 14:30N 29°56' W 090°03'0 0.0
2015-Feb-25 13:33N 29°56' W 090°03'0 0.0
2015-Feb-25 12:31N 29°56' W 090°03'0 0.0
2015-Feb-25 11:33N 29°56' W 090°03'0 0.0
2015-Feb-25 10:33N 29°56' W 090°03'7 6.0
2015-Feb-25 09:24N 29°56' W 090°11'3 0.1
2015-Feb-24 09:21N 29°55' W 090°08'4 5.5
2015-Feb-24 08:33N 29°57' W 090°04'7 3.1
2015-Feb-24 06:27N 29°53' W 089°58'  
Track history (hours):
 
Tides and Currents Weather Stations Pressure Air Temp Water Temp Dewpoint Dewpoint Depression Visibility Wind Speed Wind Dir Waves Ship Positions

Morania No 6

Owner: PENN MARITIME INC, Seattle, WA. More information available from US FCC via Universal Licensing System and Coast Guard Vessel Documentation Center.

Last reported at 2015-Feb-25 19:10 UTC. Time now 2015-Mar-02 20:42 UTC.
Position N 29°56' W 090°03'.

Length 45 m; draft 5.4 m.

MMSI: 366920970.

Date/timePositionNaut miles runAvg speedWind from/ knotsBaromVisibWave heightAir tempDewpointWater temp
2015-Feb-25 19:10N 29°56' W 090°03'0 0.0
2015-Feb-25 18:32N 29°56' W 090°03'0 0.0
2015-Feb-25 17:32N 29°56' W 090°03'0 0.0
2015-Feb-25 16:27N 29°56' W 090°03'0 0.0
2015-Feb-25 15:31N 29°56' W 090°03'0 0.0
2015-Feb-25 14:30N 29°56' W 090°03'0 0.0
2015-Feb-25 13:33N 29°56' W 090°03'0 0.0
2015-Feb-25 12:31N 29°56' W 090°03'0 0.0
2015-Feb-25 11:33N 29°56' W 090°03'0 0.0
2015-Feb-25 10:33N 29°56' W 090°03'7 6.0
2015-Feb-25 09:24N 29°56' W 090°11'3 0.1
2015-Feb-24 09:21N 29°55' W 090°08'4 5.5
2015-Feb-24 08:33N 29°57' W 090°04'7 3.1
2015-Feb-24 06:27N 29°53' W 089°58'  

Dump ship's entire track history